Parsonsfield, Maine
Current Conditions -  °F | °C
As of 10:55 AM on Friday 28 Nov 2014 (Local Time) from KSFM Reporting Station
NA  
Wind Chill: 27°   Ceiling: NA
Heat Index: 27°   Visibility: 5mi
Dew Point: 18°   Wind: 0mph
Humidity: 69%   Direction: NA
Pressure: 30.05"   Gusts: NA
Location:  43.73°N, 70.93°W
Report Text: KSFM 281555Z AUTO 00000KT 5SM M03/M08 A3005 RMK AO1
Loading
Personal Weather Stations






























Interactive Weather Map New forecast layout! Learn more

10-Day Weather Forecast

Advertisements
Track Severe Weather on mobile